createdAt,value
2018-07-16T00:00:30.400Z,3.87
2018-07-16T00:02:59.048Z,4.20
2018-07-16T00:05:27.774Z,4.63
2018-07-16T00:07:56.449Z,4.17
2018-07-16T00:10:25.038Z,3.97
2018-07-16T00:12:53.727Z,4.50
2018-07-16T00:15:22.412Z,4.83
2018-07-16T00:17:50.998Z,5.00
2018-07-16T00:20:19.503Z,4.60
2018-07-16T00:22:48.156Z,4.73
2018-07-16T00:25:16.699Z,5.10
2018-07-16T00:27:45.210Z,5.20
2018-07-16T00:30:13.784Z,5.07
2018-07-16T00:32:42.362Z,4.97
2018-07-16T00:35:11.008Z,4.70
2018-07-16T00:37:39.594Z,4.77
2018-07-16T00:40:08.211Z,5.30
2018-07-16T00:42:36.856Z,5.30
2018-07-16T00:45:06.768Z,5.47
2018-07-16T00:47:35.371Z,5.33
2018-07-16T00:50:04.032Z,5.33
2018-07-16T00:52:32.862Z,6.27
2018-07-16T00:55:01.442Z,5.63
2018-07-16T00:57:30.116Z,5.67
2018-07-16T00:59:58.714Z,5.70
2018-07-16T01:02:27.225Z,6.17
2018-07-16T01:04:55.888Z,6.27
2018-07-16T01:07:24.625Z,6.13
2018-07-16T01:09:54.372Z,6.50
2018-07-16T01:12:23.037Z,6.67
2018-07-16T01:14:51.711Z,6.20
2018-07-16T01:17:20.291Z,6.20
2018-07-16T01:19:48.859Z,5.90
2018-07-16T01:22:17.526Z,6.33
2018-07-16T01:24:46.205Z,6.30
2018-07-16T01:27:15.125Z,6.80
2018-07-16T01:29:43.703Z,6.70
2018-07-16T01:32:12.265Z,6.20
2018-07-16T01:34:40.784Z,7.10
2018-07-16T01:37:09.418Z,6.43
2018-07-16T01:39:37.948Z,7.83
2018-07-16T01:42:06.487Z,7.37
2018-07-16T01:44:35.069Z,7.70
2018-07-16T01:47:03.647Z,7.37
2018-07-16T01:49:32.248Z,6.80
2018-07-16T01:52:00.802Z,7.37
2018-07-16T01:54:29.440Z,6.40
2018-07-16T01:56:58.200Z,6.70
2018-07-16T01:59:26.772Z,7.37
2018-07-16T02:01:55.368Z,7.80
2018-07-16T02:04:23.963Z,7.70
2018-07-16T02:06:52.585Z,7.40
2018-07-16T02:09:21.135Z,7.57
2018-07-16T02:11:49.642Z,6.87
2018-07-16T02:14:18.245Z,6.63
2018-07-16T02:16:46.835Z,5.77
2018-07-16T02:19:15.538Z,6.90
2018-07-16T02:21:44.265Z,6.57
2018-07-16T02:24:12.914Z,6.07
2018-07-16T02:26:41.528Z,7.20
2018-07-16T02:29:10.202Z,7.13
2018-07-16T02:31:38.747Z,7.13
2018-07-16T02:34:07.332Z,7.10
2018-07-16T02:36:35.938Z,7.17
2018-07-16T02:39:04.872Z,7.23
2018-07-16T02:41:33.476Z,7.80
2018-07-16T02:44:02.140Z,8.90
2018-07-16T02:46:30.888Z,9.37
2018-07-16T02:48:59.571Z,8.40
2018-07-16T02:51:28.184Z,7.60
2018-07-16T02:53:57.135Z,6.30
2018-07-16T02:56:25.838Z,7.33
2018-07-16T02:58:54.524Z,9.07
2018-07-16T03:01:23.120Z,8.73
2018-07-16T03:03:51.737Z,8.67
2018-07-16T03:06:20.568Z,8.80
2018-07-16T03:08:49.123Z,8.37
2018-07-16T03:11:17.798Z,11.00
2018-07-16T03:13:46.499Z,8.80
2018-07-16T03:16:15.056Z,9.60
2018-07-16T03:18:43.943Z,6.90
2018-07-16T03:21:12.536Z,8.23
2018-07-16T03:23:41.212Z,9.83
2018-07-16T03:26:09.936Z,8.77
2018-07-16T03:28:38.613Z,8.67
2018-07-16T03:31:07.644Z,8.30
2018-07-16T03:33:36.203Z,10.00
2018-07-16T03:36:04.871Z,9.90
2018-07-16T03:38:33.568Z,9.43
2018-07-16T03:41:02.143Z,9.73
2018-07-16T03:43:30.729Z,7.20
2018-07-16T03:45:59.337Z,7.53
2018-07-16T03:48:27.912Z,7.80
2018-07-16T03:50:56.530Z,7.57
2018-07-16T03:53:25.288Z,6.70
2018-07-16T03:55:53.903Z,7.20
2018-07-16T03:58:22.504Z,7.80
2018-07-16T04:00:51.145Z,7.00
2018-07-16T04:03:19.814Z,6.93
2018-07-16T04:05:48.349Z,7.97
2018-07-16T04:08:16.937Z,7.30
2018-07-16T04:10:45.507Z,8.80
2018-07-16T04:13:14.172Z,8.33
2018-07-16T04:15:42.934Z,8.60
2018-07-16T04:18:15.845Z,8.40
2018-07-16T04:20:44.520Z,9.60
2018-07-16T04:23:13.457Z,10.70
2018-07-16T04:25:42.396Z,10.57
2018-07-16T04:28:11.498Z,10.47
2018-07-16T04:30:40.833Z,9.57
2018-07-16T04:33:09.870Z,8.77
2018-07-16T04:35:38.530Z,8.70
2018-07-16T04:38:07.211Z,8.40
2018-07-16T04:40:35.953Z,8.50
2018-07-16T04:43:04.575Z,8.40
2018-07-16T04:45:33.094Z,8.27
2018-07-16T04:48:01.755Z,9.93
2018-07-16T04:50:30.313Z,9.53
2018-07-16T04:52:58.969Z,9.40
2018-07-16T04:55:27.660Z,10.07
2018-07-16T04:57:56.248Z,10.00
2018-07-16T05:00:31.336Z,9.33
2018-07-16T05:03:00.006Z,9.73
2018-07-16T05:05:28.924Z,8.83
2018-07-16T05:07:57.598Z,9.23
2018-07-16T05:10:26.141Z,9.53
2018-07-16T05:12:54.749Z,9.57
2018-07-16T05:15:23.526Z,8.77
2018-07-16T05:17:52.290Z,9.50
2018-07-16T05:20:20.894Z,9.43
2018-07-16T05:22:49.509Z,9.10
2018-07-16T05:25:18.212Z,9.30
2018-07-16T05:27:46.806Z,9.40
2018-07-16T05:30:15.514Z,9.67
2018-07-16T05:32:44.524Z,8.80
2018-07-16T05:35:12.901Z,8.60
2018-07-16T05:37:41.498Z,8.13
2018-07-16T05:40:10.080Z,11.83
2018-07-16T05:42:38.698Z,9.13
2018-07-16T05:45:07.537Z,8.10
2018-07-16T05:47:36.196Z,8.33
2018-07-16T05:50:04.753Z,8.27
2018-07-16T05:52:33.411Z,9.00
2018-07-16T05:55:02.171Z,8.67
2018-07-16T05:57:30.877Z,9.53
2018-07-16T05:59:59.504Z,9.50
2018-07-16T06:02:28.169Z,9.87
2018-07-16T06:04:56.890Z,9.60
2018-07-16T06:07:25.471Z,9.77
2018-07-16T06:09:54.166Z,9.27
2018-07-16T06:12:22.770Z,9.70
2018-07-16T06:14:51.484Z,9.70
2018-07-16T06:17:20.140Z,8.37
2018-07-16T06:19:48.732Z,8.73
2018-07-16T06:22:17.468Z,8.60
2018-07-16T06:24:46.037Z,8.43
2018-07-16T06:27:14.647Z,8.53
2018-07-16T06:29:43.216Z,7.83
2018-07-16T06:32:11.908Z,8.00
2018-07-16T06:34:40.520Z,9.20
2018-07-16T06:37:09.123Z,7.30
2018-07-16T06:39:38.000Z,7.03
2018-07-16T06:42:06.669Z,7.23
2018-07-16T06:44:35.315Z,6.73
2018-07-16T06:47:04.056Z,7.40
2018-07-16T06:49:32.853Z,7.43
2018-07-16T06:52:01.465Z,7.90
2018-07-16T06:54:30.164Z,8.20
2018-07-16T06:56:58.748Z,8.83
2018-07-16T06:59:27.363Z,8.20
2018-07-16T07:01:55.913Z,8.27
2018-07-16T07:04:24.567Z,7.70
2018-07-16T07:06:53.229Z,7.37
2018-07-16T07:09:21.914Z,7.47
2018-07-16T07:11:50.584Z,7.73
2018-07-16T07:14:19.325Z,7.47
2018-07-16T07:16:48.019Z,7.73
2018-07-16T07:19:16.559Z,8.27
2018-07-16T07:21:45.111Z,7.73
2018-07-16T07:24:13.789Z,7.53
2018-07-16T07:26:42.373Z,7.87
2018-07-16T07:29:10.923Z,8.80
2018-07-16T07:31:39.558Z,8.17
2018-07-16T07:34:08.186Z,9.83
2018-07-16T07:36:36.779Z,9.73
2018-07-16T07:39:06.706Z,10.67
2018-07-16T07:41:35.285Z,10.40
2018-07-16T07:44:03.917Z,10.23
2018-07-16T07:46:32.893Z,9.60
2018-07-16T07:49:01.959Z,7.73
2018-07-16T07:51:30.606Z,15.80
2018-07-16T07:53:59.393Z,7.53
2018-07-16T07:56:28.019Z,8.43
2018-07-16T07:58:56.799Z,7.67
2018-07-16T08:01:25.530Z,7.60
2018-07-16T08:03:54.137Z,7.13
2018-07-16T08:06:22.774Z,7.43
2018-07-16T08:08:51.327Z,7.63
2018-07-16T08:11:19.991Z,7.30
2018-07-16T08:13:48.602Z,7.13
2018-07-16T08:16:17.644Z,6.70
2018-07-16T08:18:46.264Z,6.50
2018-07-16T08:21:14.981Z,6.90
2018-07-16T08:23:43.761Z,6.77
2018-07-16T08:26:12.404Z,6.80
2018-07-16T08:28:41.024Z,6.77
2018-07-16T08:31:09.648Z,7.47
2018-07-16T08:33:38.383Z,6.60
2018-07-16T08:36:06.996Z,7.67
2018-07-16T08:38:35.612Z,6.57
2018-07-16T08:41:04.326Z,7.27
2018-07-16T08:43:32.920Z,6.23
2018-07-16T08:46:01.531Z,6.45
2018-07-16T08:48:30.118Z,9.18
2018-07-16T08:50:58.717Z,6.10
2018-07-16T08:53:27.341Z,5.60
2018-07-16T08:55:55.938Z,5.37
2018-07-16T08:58:24.620Z,4.97
2018-07-16T09:00:53.160Z,4.80
2018-07-16T09:03:21.646Z,4.47
2018-07-16T09:05:54.406Z,4.50
2018-07-16T09:08:23.052Z,4.10
2018-07-16T09:10:51.679Z,3.87
2018-07-16T09:13:20.205Z,4.78
2018-07-16T09:15:48.798Z,3.42
2018-07-16T09:18:17.426Z,4.45
2018-07-16T09:20:45.934Z,2.95
2018-07-16T09:23:14.554Z,3.15
2018-07-16T09:25:43.338Z,3.10
2018-07-16T09:28:11.938Z,3.12
2018-07-16T09:30:40.570Z,3.00
2018-07-16T09:33:09.164Z,3.35
2018-07-16T09:35:38.040Z,3.08
2018-07-16T09:38:06.952Z,2.85
2018-07-16T09:40:35.813Z,3.20
2018-07-16T09:43:04.679Z,2.98
2018-07-16T09:45:33.397Z,2.83
2018-07-16T09:48:02.110Z,2.58
2018-07-16T09:50:30.744Z,3.00
2018-07-16T09:52:59.453Z,2.90
2018-07-16T09:55:28.250Z,2.98
2018-07-16T09:57:57.580Z,3.20
2018-07-16T10:00:31.803Z,2.50
2018-07-16T10:03:00.481Z,2.80
2018-07-16T10:05:29.187Z,3.05
2018-07-16T10:07:57.793Z,3.30
2018-07-16T10:10:26.482Z,2.83
2018-07-16T10:12:55.162Z,3.35
2018-07-16T10:15:23.826Z,3.10
2018-07-16T10:17:52.588Z,3.37
2018-07-16T10:20:21.249Z,4.47
2018-07-16T10:22:49.812Z,3.37
2018-07-16T10:25:18.479Z,3.02
2018-07-16T10:27:47.134Z,3.17
2018-07-16T10:30:15.707Z,3.12
2018-07-16T10:32:44.249Z,3.08
2018-07-16T10:35:12.906Z,4.17
2018-07-16T10:37:41.506Z,3.95
2018-07-16T10:40:10.139Z,3.40
2018-07-16T10:42:39.865Z,3.72
2018-07-16T10:45:08.680Z,3.40
2018-07-16T10:47:37.318Z,2.95
2018-07-16T10:50:06.054Z,3.05
2018-07-16T10:52:34.651Z,3.37
2018-07-16T10:55:03.351Z,2.95
2018-07-16T10:57:31.962Z,3.10
2018-07-16T11:00:00.596Z,3.10
2018-07-16T11:02:29.212Z,3.15
2018-07-16T11:04:57.907Z,3.08
2018-07-16T11:07:26.502Z,3.12
2018-07-16T11:09:55.249Z,3.37
2018-07-16T11:12:24.068Z,3.02
2018-07-16T11:14:52.817Z,4.22
2018-07-16T11:17:21.515Z,3.22
2018-07-16T11:19:50.142Z,3.22
2018-07-16T11:22:18.814Z,3.40
2018-07-16T11:24:47.476Z,3.27
2018-07-16T11:27:16.174Z,3.42
2018-07-16T11:29:44.980Z,3.27
2018-07-16T11:32:13.580Z,2.80
2018-07-16T11:34:42.149Z,3.05
2018-07-16T11:37:10.816Z,3.10
2018-07-16T11:39:39.417Z,2.95
2018-07-16T11:42:08.506Z,2.95
2018-07-16T11:44:37.326Z,3.00
2018-07-16T11:47:05.895Z,2.75
2018-07-16T11:49:34.521Z,7.45
2018-07-16T11:52:03.186Z,3.67
2018-07-16T11:54:31.980Z,3.00
2018-07-16T11:57:00.658Z,3.05
2018-07-16T11:59:29.312Z,2.72
2018-07-16T12:01:58.101Z,2.75
2018-07-16T12:04:26.685Z,3.00
2018-07-16T12:06:55.381Z,2.90
2018-07-16T12:09:24.161Z,2.90
2018-07-16T12:11:52.806Z,2.65
2018-07-16T12:14:21.928Z,2.90
2018-07-16T12:16:50.781Z,2.90
2018-07-16T12:19:19.593Z,3.27
2018-07-16T12:21:48.203Z,2.72
2018-07-16T12:24:16.832Z,3.05
2018-07-16T12:26:45.417Z,2.33
2018-07-16T12:29:14.055Z,2.85
2018-07-16T12:31:42.724Z,2.70
2018-07-16T12:34:11.412Z,2.37
2018-07-16T12:36:39.991Z,2.15
2018-07-16T12:39:08.652Z,2.20
2018-07-16T12:41:37.390Z,2.45
2018-07-16T12:44:06.128Z,2.85
2018-07-16T12:46:34.812Z,2.55
2018-07-16T12:49:03.516Z,2.65
2018-07-16T12:51:32.324Z,2.65
2018-07-16T12:54:01.099Z,2.70
2018-07-16T12:56:29.808Z,2.90
2018-07-16T12:58:58.549Z,2.87
2018-07-16T13:01:27.145Z,5.00
2018-07-16T13:03:55.692Z,2.90
2018-07-16T13:06:24.519Z,2.98
2018-07-16T13:08:54.655Z,2.90
2018-07-16T13:11:23.275Z,2.95
2018-07-16T13:13:51.974Z,2.75
2018-07-16T13:16:20.753Z,2.25
2018-07-16T13:18:49.621Z,2.50
2018-07-16T13:21:19.405Z,2.45
2018-07-16T13:23:48.115Z,2.17
2018-07-16T13:26:16.879Z,2.05
2018-07-16T13:28:45.549Z,3.62
2018-07-16T13:31:15.387Z,2.12
2018-07-16T13:33:44.047Z,2.02
2018-07-16T13:36:12.755Z,2.25
2018-07-16T13:38:41.418Z,2.30
2018-07-16T13:41:09.947Z,1.82
2018-07-16T13:43:38.631Z,1.90
2018-07-16T13:46:07.611Z,1.87
2018-07-16T13:48:36.203Z,1.90
2018-07-16T13:51:04.885Z,2.37
2018-07-16T13:53:33.593Z,2.20
2018-07-16T13:56:02.253Z,2.10
2018-07-16T13:58:30.900Z,2.20
2018-07-16T14:00:59.515Z,2.20
2018-07-16T14:03:28.097Z,2.12
2018-07-16T14:05:56.781Z,2.05
2018-07-16T14:08:25.310Z,2.12
2018-07-16T14:10:54.981Z,2.35
2018-07-16T14:13:23.781Z,2.10
2018-07-16T14:15:52.569Z,1.90
2018-07-16T14:18:21.160Z,1.80
2018-07-16T14:20:49.732Z,2.10
2018-07-16T14:23:18.388Z,1.90
2018-07-16T14:25:46.981Z,1.92
2018-07-16T14:28:15.619Z,1.90
2018-07-16T14:30:44.355Z,3.62
2018-07-16T14:33:13.026Z,2.00
2018-07-16T14:35:41.586Z,2.08
2018-07-16T14:38:10.164Z,1.60
2018-07-16T14:40:38.768Z,1.95
2018-07-16T14:43:07.466Z,1.90
2018-07-16T14:45:36.076Z,2.10
2018-07-16T14:48:04.685Z,2.00
2018-07-16T14:50:33.295Z,1.85
2018-07-16T14:53:01.940Z,1.72
2018-07-16T14:55:30.497Z,2.00
2018-07-16T14:57:59.073Z,2.00
2018-07-16T15:00:27.697Z,1.90
2018-07-16T15:02:56.517Z,1.82
2018-07-16T15:05:25.147Z,2.10
2018-07-16T15:07:53.755Z,2.40
2018-07-16T15:10:22.503Z,2.17
2018-07-16T15:12:51.091Z,2.10
2018-07-16T15:15:19.698Z,2.30
2018-07-16T15:17:48.836Z,2.08
2018-07-16T15:20:18.372Z,2.10
2018-07-16T15:22:46.862Z,2.20
2018-07-16T15:25:15.702Z,2.60
2018-07-16T15:27:44.338Z,2.10
2018-07-16T15:30:12.959Z,2.40
2018-07-16T15:32:41.624Z,2.35
2018-07-16T15:35:10.332Z,2.30
2018-07-16T15:37:39.008Z,2.42
2018-07-16T15:40:07.717Z,2.50
2018-07-16T15:42:36.423Z,2.77
2018-07-16T15:45:05.314Z,2.60
2018-07-16T15:47:33.974Z,2.50
2018-07-16T15:50:02.795Z,2.50
2018-07-16T15:52:31.406Z,2.52
2018-07-16T15:55:00.129Z,2.17
2018-07-16T15:57:28.968Z,2.30
2018-07-16T15:59:57.645Z,2.30
2018-07-16T16:02:26.244Z,2.33
2018-07-16T16:04:54.865Z,2.27
2018-07-16T16:07:23.466Z,2.40
2018-07-16T16:09:52.130Z,3.00
2018-07-16T16:12:20.789Z,2.85
2018-07-16T16:14:49.410Z,2.40
2018-07-16T16:17:18.137Z,2.62
2018-07-16T16:19:46.724Z,2.83
2018-07-16T16:22:15.387Z,2.70
2018-07-16T16:24:44.080Z,2.58
2018-07-16T16:27:12.637Z,2.70
2018-07-16T16:29:41.261Z,2.62
2018-07-16T16:32:09.879Z,4.30
2018-07-16T16:34:38.683Z,2.77
2018-07-16T16:37:07.269Z,2.60
2018-07-16T16:39:36.120Z,2.50
2018-07-16T16:42:04.871Z,2.58
2018-07-16T16:44:33.717Z,2.50
2018-07-16T16:47:02.549Z,2.70
2018-07-16T16:49:31.142Z,2.75
2018-07-16T16:51:59.761Z,2.67
2018-07-16T16:54:28.452Z,6.00
2018-07-16T16:56:57.025Z,2.55
2018-07-16T16:59:25.693Z,2.40
2018-07-16T17:01:54.342Z,3.40
2018-07-16T17:04:22.993Z,2.98
2018-07-16T17:06:51.652Z,2.37
2018-07-16T17:09:20.249Z,2.22
2018-07-16T17:11:48.883Z,2.15
2018-07-16T17:14:17.482Z,2.47
2018-07-16T17:16:46.088Z,2.40
2018-07-16T17:19:14.890Z,2.30
2018-07-16T17:21:43.532Z,2.20
2018-07-16T17:24:12.206Z,2.12
2018-07-16T17:26:40.869Z,2.40
2018-07-16T17:29:09.491Z,2.60
2018-07-16T17:31:38.247Z,2.62
2018-07-16T17:34:06.832Z,2.62
2018-07-16T17:36:35.392Z,2.45
2018-07-16T17:39:05.155Z,2.42
2018-07-16T17:41:33.713Z,2.20
2018-07-16T17:44:02.354Z,2.37
2018-07-16T17:46:31.225Z,2.17
2018-07-16T17:48:59.992Z,2.45
2018-07-16T17:51:28.924Z,2.80
2018-07-16T17:54:00.361Z,2.43
2018-07-16T17:56:30.689Z,2.72
2018-07-16T17:59:01.579Z,2.65
2018-07-16T18:01:30.370Z,2.62
2018-07-16T18:03:58.944Z,2.70
2018-07-16T18:06:27.703Z,13.53
2018-07-16T18:14:51.620Z,2.95
2018-07-16T18:17:20.272Z,3.85
2018-07-16T18:19:52.135Z,3.33
2018-07-16T18:22:20.799Z,3.22
2018-07-16T18:24:49.789Z,3.10
2018-07-16T18:27:18.987Z,3.05
2018-07-16T18:29:50.593Z,3.02
2018-07-16T18:32:20.064Z,3.70
2018-07-16T18:34:49.621Z,3.20
2018-07-16T18:37:19.806Z,3.40
2018-07-16T18:39:54.828Z,3.30
2018-07-16T18:42:24.317Z,3.60
2018-07-16T18:44:54.787Z,3.25
2018-07-16T18:47:23.621Z,3.33
2018-07-16T18:49:54.092Z,3.33
2018-07-16T18:52:25.018Z,3.67
2018-07-16T18:54:54.243Z,3.30
2018-07-16T18:57:23.844Z,3.62
2018-07-16T18:59:53.026Z,3.40
2018-07-16T19:02:21.720Z,4.12
2018-07-16T19:04:50.908Z,3.72
2018-07-16T19:07:22.652Z,3.65
2018-07-16T19:09:52.291Z,4.10
2018-07-16T19:12:21.375Z,3.40
2018-07-16T19:14:50.002Z,3.47
2018-07-16T19:17:19.981Z,3.70
2018-07-16T19:19:49.062Z,3.58
2018-07-16T19:22:17.940Z,3.97
2018-07-16T19:24:47.585Z,3.30
2018-07-16T19:27:17.528Z,3.50
2018-07-16T19:29:46.307Z,3.90
2018-07-16T19:32:15.579Z,6.73
2018-07-16T19:34:44.893Z,14.07
2018-07-16T19:37:13.871Z,3.97
2018-07-16T19:39:42.838Z,3.77
2018-07-16T19:42:12.707Z,3.87
2018-07-16T19:44:41.690Z,3.50
2018-07-16T19:47:11.946Z,3.77
2018-07-16T19:49:41.003Z,3.67
2018-07-16T19:52:09.820Z,3.90
2018-07-16T19:54:39.593Z,4.27
2018-07-16T19:57:08.816Z,4.77
2018-07-16T19:59:37.805Z,4.17
2018-07-16T20:02:06.804Z,4.17
2018-07-16T20:04:35.636Z,4.10
2018-07-16T20:07:04.678Z,4.53
2018-07-16T20:09:33.688Z,4.60
2018-07-16T20:12:02.868Z,4.50
2018-07-16T20:14:31.695Z,4.20
2018-07-16T20:17:00.897Z,4.00
2018-07-16T20:19:29.635Z,4.70
2018-07-16T20:21:58.210Z,4.50
2018-07-16T20:24:27.722Z,4.77
2018-07-16T20:26:56.689Z,4.83
2018-07-16T20:29:25.867Z,4.30
2018-07-16T20:31:55.042Z,4.03
2018-07-16T20:34:23.995Z,4.33
2018-07-16T20:36:53.503Z,4.67
2018-07-16T20:39:23.047Z,4.67
2018-07-16T20:41:52.351Z,4.60
2018-07-16T20:44:21.502Z,4.57
2018-07-16T20:46:50.818Z,4.90
2018-07-16T20:49:19.681Z,4.87
2018-07-16T20:51:48.630Z,4.80
2018-07-16T20:54:17.797Z,5.23
2018-07-16T20:56:46.430Z,4.90
2018-07-16T20:59:15.936Z,4.67
2018-07-16T21:01:44.739Z,4.77
2018-07-16T21:04:13.567Z,4.97
2018-07-16T21:06:42.420Z,4.83
2018-07-16T21:09:12.116Z,4.80
2018-07-16T21:11:41.153Z,5.00
2018-07-16T21:14:10.310Z,4.57
2018-07-16T21:16:39.174Z,4.73
2018-07-16T21:19:08.360Z,4.77
2018-07-16T21:21:36.872Z,5.40
2018-07-16T21:24:05.734Z,5.27
2018-07-16T21:26:35.192Z,5.47
2018-07-16T21:29:03.942Z,5.57
2018-07-16T21:31:33.683Z,6.20
2018-07-16T21:34:02.650Z,5.43
2018-07-16T21:36:32.392Z,5.40
2018-07-16T21:39:00.949Z,6.00
2018-07-16T21:41:29.792Z,5.60
2018-07-16T21:43:58.831Z,5.60
2018-07-16T21:46:27.888Z,5.00
2018-07-16T21:48:56.733Z,5.60
2018-07-16T21:51:25.515Z,5.30
2018-07-16T21:53:54.220Z,6.10
2018-07-16T21:56:23.222Z,7.73
2018-07-16T21:58:52.052Z,5.83
2018-07-16T22:01:21.054Z,5.93
2018-07-16T22:03:50.158Z,5.87
2018-07-16T22:06:20.031Z,5.57
2018-07-16T22:08:49.016Z,6.60
2018-07-16T22:11:17.830Z,6.13
2018-07-16T22:13:47.593Z,6.73
2018-07-16T22:16:17.357Z,6.40
2018-07-16T22:18:49.219Z,7.00
2018-07-16T22:21:18.007Z,6.83
2018-07-16T22:23:46.888Z,6.80
2018-07-16T22:26:15.827Z,6.33
2018-07-16T22:28:45.194Z,6.07
2018-07-16T22:31:14.028Z,6.40
2018-07-16T22:33:42.775Z,8.70
2018-07-16T22:36:11.497Z,7.20
2018-07-16T22:38:41.037Z,6.20
2018-07-16T22:41:10.258Z,6.50
2018-07-16T22:43:39.060Z,7.50
2018-07-16T22:46:07.701Z,9.07
2018-07-16T22:48:37.373Z,6.80
2018-07-16T22:51:06.866Z,6.53
2018-07-16T22:53:35.799Z,6.30
2018-07-16T22:56:04.640Z,6.30
2018-07-16T22:58:34.743Z,6.60
2018-07-16T23:01:04.359Z,6.43
2018-07-16T23:03:33.545Z,9.00
2018-07-16T23:06:02.537Z,8.63
2018-07-16T23:08:31.685Z,7.53
2018-07-16T23:11:02.739Z,6.30
2018-07-16T23:13:31.401Z,6.10
2018-07-16T23:16:00.471Z,6.23
2018-07-16T23:18:30.095Z,7.20
2018-07-16T23:20:59.749Z,6.07
2018-07-16T23:23:28.591Z,6.80
2018-07-16T23:25:57.942Z,6.30
2018-07-16T23:28:26.701Z,6.23
2018-07-16T23:30:55.388Z,6.63
2018-07-16T23:33:24.090Z,6.00
2018-07-16T23:35:53.478Z,6.80
2018-07-16T23:38:22.512Z,6.90
2018-07-16T23:40:51.799Z,6.03
2018-07-16T23:43:21.046Z,5.97
2018-07-16T23:45:49.647Z,5.97
2018-07-16T23:48:18.355Z,5.47
2018-07-16T23:50:47.156Z,6.70
2018-07-16T23:53:16.022Z,6.23
2018-07-16T23:55:44.760Z,6.03
2018-07-16T23:58:13.686Z,6.50
